Time;durP1;ratioP1;P1;durP2;ratioP2;P2;SDS_P1;SDS_P2;PMS_P1;PMS_P2;Temp;Humidity;BMP_temperature;BMP_pressure;BME280_temperature;BME280_humidity;BME280_pressure;Samples;Min_cycle;Max_cycle;Signal;HPM_P1;HPM_P2
2022/12/03 00:00:18;;;;;;;25.83;10.73;;;;;;;1.57;89.77;102156.81;5074819;28;20503;-87
2022/12/03 00:02:43;;;;;;;24.83;10.55;;;;;;;1.53;89.59;102146.47;5092527;28;20115;-87
2022/12/03 00:05:09;;;;;;;25.40;11.70;;;;;;;1.52;89.83;102153.66;5076463;28;20031;-86
2022/12/03 00:07:40;;;;;;;26.45;10.45;;;;;;;1.53;90.54;102154.50;5078042;28;20050;-87
2022/12/03 00:10:06;;;;;;;23.80;10.57;;;;;;;1.55;90.05;102148.06;5062243;28;20388;-87
2022/12/03 00:12:35;;;;;;;25.10;10.77;;;;;;;1.57;89.79;102154.13;5077837;28;20495;-87
2022/12/03 00:15:21;;;;;;;26.63;10.95;;;;;;;1.54;89.93;102149.03;5078345;28;20109;-87
2022/12/03 00:17:52;;;;;;;27.00;11.00;;;;;;;1.53;90.46;102144.63;5080848;28;20055;-87
2022/12/03 00:20:22;;;;;;;23.70;10.48;;;;;;;1.53;90.55;102144.63;5061789;28;20121;-87
2022/12/03 00:22:54;;;;;;;23.88;10.52;;;;;;;1.55;90.50;102139.16;5078464;28;20193;-87
2022/12/03 00:25:27;;;;;;;26.73;11.40;;;;;;;1.56;90.79;102138.19;5061374;28;20072;-87
2022/12/03 00:27:53;;;;;;;24.42;10.25;;;;;;;1.56;90.74;102133.69;5062170;28;20384;-87
2022/12/03 00:30:18;;;;;;;25.42;10.77;;;;;;;1.58;90.15;102126.41;5077720;28;20031;-87
2022/12/03 00:32:49;;;;;;;24.00;10.37;;;;;;;1.58;90.75;102126.41;5061578;28;20028;-87
2022/12/03 00:35:23;;;;;;;26.98;10.68;;;;;;;1.61;90.91;102128.00;5077915;28;20066;-87
2022/12/03 00:37:49;;;;;;;24.38;10.07;;;;;;;1.62;90.45;102131.50;5077887;28;20119;-86
2022/12/03 00:40:17;;;;;;;26.45;10.68;;;;;;;1.62;90.60;102132.34;5077589;28;20032;-87
2022/12/03 00:42:42;;;;;;;28.00;12.05;;;;;;;1.60;90.75;102125.44;5078383;28;20117;-86
2022/12/03 00:45:08;;;;;;;22.17;10.75;;;;;;;1.59;90.72;102124.56;5078481;28;20028;-87
2022/12/03 00:47:41;;;;;;;22.53;10.40;;;;;;;1.62;90.52;102124.31;5078114;28;20353;-87
2022/12/03 00:50:19;;;;;;;25.13;10.75;;;;;;;1.65;90.53;102125.91;5077538;28;20020;-86
2022/12/03 00:52:54;;;;;;;25.48;11.45;;;;;;;1.63;90.92;102130.53;5077645;28;20050;-87
2022/12/03 00:55:20;;;;;;;26.25;11.40;;;;;;;1.62;90.30;102124.31;5077353;28;20040;-86
2022/12/03 00:57:48;;;;;;;26.13;11.20;;;;;;;1.63;90.57;102119.84;5078176;28;20363;-87
2022/12/03 01:00:14;;;;;;;25.10;11.20;;;;;;;1.66;90.46;102127.63;5077004;28;20039;-87
2022/12/03 01:02:42;;;;;;;25.98;10.85;;;;;;;1.70;90.06;102134.41;5077581;28;20031;-87
2022/12/03 01:05:07;;;;;;;27.65;11.48;;;;;;;1.68;90.32;102131.88;5077153;28;20040;-87
2022/12/03 01:07:43;;;;;;;23.10;10.85;;;;;;;1.68;90.56;102131.88;5077045;28;20077;-87
2022/12/03 01:10:11;;;;;;;25.35;11.77;;;;;;;1.67;90.20;102126.63;5077357;28;20043;-87
2022/12/03 01:12:39;;;;;;;25.23;11.50;;;;;;;1.68;90.33;102131.88;5095404;28;20039;-87
2022/12/03 01:15:08;;;;;;;25.45;11.15;;;;;;;1.68;90.48;102134.53;5095387;28;20028;-87
2022/12/03 01:17:36;;;;;;;25.80;10.63;;;;;;;1.68;90.76;102126.53;5095063;28;20142;-87
2022/12/03 01:20:04;;;;;;;25.38;11.93;;;;;;;1.66;90.66;102116.91;5077041;28;20046;-87
2022/12/03 01:22:31;;;;;;;26.50;11.68;;;;;;;1.66;90.89;102119.59;5076622;28;20024;-87
2022/12/03 01:25:04;;;;;;;28.45;12.00;;;;;;;1.66;91.23;102122.25;5077495;28;20020;-86
2022/12/03 01:27:29;;;;;;;28.23;12.70;;;;;;;1.64;90.79;102119.72;5076600;28;20024;-87
2022/12/03 01:30:00;;;;;;;28.10;12.57;;;;;;;1.65;90.44;102120.56;5076548;28;20138;-87
2022/12/03 01:32:25;;;;;;;27.02;12.32;;;;;;;1.64;90.93;102126.88;5076700;28;20036;-87
2022/12/03 01:34:54;;;;;;;27.73;12.00;;;;;;;1.65;91.04;102121.38;5076648;28;20032;-86
2022/12/03 01:37:24;;;;;;;31.23;12.65;;;;;;;1.65;90.58;102113.38;5094623;28;20464;-86
2022/12/03 01:39:55;;;;;;;27.27;12.40;;;;;;;1.64;90.97;102117.03;5076764;28;20044;-87
2022/12/03 01:42:23;;;;;;;29.07;13.50;;;;;;;1.66;90.69;102117.75;5076605;28;20052;-87
2022/12/03 01:44:52;;;;;;;31.83;13.18;;;;;;;1.63;90.82;102119.84;5076940;28;20042;-87
2022/12/03 01:47:23;;;;;;;29.20;12.43;;;;;;;1.64;90.94;102117.03;5076205;28;20020;-87
2022/12/03 01:49:57;;;;;;;30.77;12.88;;;;;;;1.68;90.70;102118.50;5094973;28;20023;-87
2022/12/03 01:52:27;;;;;;;27.13;12.38;;;;;;;1.67;90.67;102111.44;5076698;28;20039;-87
2022/12/03 01:54:56;;;;;;;28.33;12.00;;;;;;;1.71;91.33;102112.00;5076223;28;20043;-87
2022/12/03 01:57:29;;;;;;;29.75;12.52;;;;;;;1.69;91.58;102108.63;5076280;28;20036;-87
2022/12/03 01:59:59;;;;;;;27.02;12.45;;;;;;;1.70;90.90;102105.81;5076317;28;20437;-87
2022/12/03 02:02:29;;;;;;;34.45;13.43;;;;;;;1.68;90.51;102110.47;5094175;28;20484;-87
2022/12/03 02:04:58;;;;;;;29.00;12.73;;;;;;;1.67;91.07;102108.75;5094416;28;20024;-87
2022/12/03 02:07:35;;;;;;;28.47;12.07;;;;;;;1.69;91.34;102114.81;5075708;28;20032;-87
2022/12/03 02:10:06;;;;;;;31.60;12.40;;;;;;;1.66;91.03;102104.38;5094880;28;20028;-87
2022/12/03 02:12:52;;;;;;;30.75;12.88;;;;;;;1.67;91.37;102107.88;5076358;28;20055;-87
2022/12/03 02:15:17;;;;;;;30.15;13.15;;;;;;;1.65;91.69;102112.53;5076315;28;20032;-87
2022/12/03 02:17:43;;;;;;;29.50;12.90;;;;;;;1.64;91.52;102114.38;5059252;28;20486;-87
2022/12/03 02:20:12;;;;;;;29.05;13.07;;;;;;;1.68;91.63;102115.81;5094220;28;20111;-87
2022/12/03 02:22:46;;;;;;;34.83;13.52;;;;;;;1.70;91.21;102110.34;5059056;28;20123;-86
2022/12/03 02:25:20;;;;;;;29.05;12.68;;;;;;;1.72;91.47;102105.69;5075898;28;20039;-87
2022/12/03 02:27:47;;;;;;;29.15;12.80;;;;;;;1.71;91.34;102095.97;5076178;28;20077;-87
2022/12/03 02:30:19;;;;;;;30.02;12.80;;;;;;;1.70;91.29;102099.63;5075332;28;20387;-87
2022/12/03 02:33:08;;;;;;;31.23;13.70;;;;;;;1.73;91.45;102099.38;5075733;28;20024;-87
2022/12/03 02:35:35;;;;;;;29.88;13.15;;;;;;;1.74;91.20;102099.25;5075426;28;20059;-87
2022/12/03 02:38:26;;;;;;;32.38;13.77;;;;;;;1.74;91.64;102095.69;5075321;28;20589;-87
2022/12/03 02:40:58;;;;;;;29.15;13.55;;;;;;;1.72;91.35;102097.66;5075497;28;20032;-87
2022/12/03 02:43:24;;;;;;;31.02;13.55;;;;;;;1.69;91.32;102089.91;5075418;28;20035;-87
2022/12/03 02:45:58;;;;;;;34.10;13.43;;;;;;;1.69;91.77;102090.75;5075089;28;20031;-87
2022/12/03 02:48:33;;;;;;;28.13;11.50;;;;;;;1.71;91.47;102090.59;5075252;28;20036;-86
2022/12/03 02:51:08;;;;;;;29.10;13.07;;;;;;;1.71;91.50;102085.25;5075701;28;20055;-87
2022/12/03 02:53:43;;;;;;;31.77;12.10;;;;;;;1.71;91.81;102091.47;5094064;28;20024;-87
2022/12/03 02:56:21;;;;;;;29.73;13.20;;;;;;;1.71;91.42;102090.59;5075018;28;20569;-87
2022/12/03 02:58:52;;;;;;;31.27;13.88;;;;;;;1.69;91.69;102093.41;5075796;28;20464;-87
2022/12/03 03:01:26;;;;;;;30.42;12.80;;;;;;;1.68;91.66;102081.03;5075300;28;20032;-87
2022/12/03 03:03:57;;;;;;;28.65;13.07;;;;;;;1.69;91.74;102085.38;5075108;28;20051;-87
2022/12/03 03:06:42;;;;;;;29.83;13.55;;;;;;;1.70;91.75;102087.09;5075674;28;20028;-86
2022/12/03 03:09:13;;;;;;;30.80;13.55;;;;;;;1.71;91.72;102085.25;5075702;28;20457;-87
2022/12/03 03:11:43;;;;;;;35.53;13.23;;;;;;;1.70;91.34;102078.22;5058756;28;20036;-87
2022/12/03 03:14:17;;;;;;;29.10;13.40;;;;;;;1.71;91.08;102082.59;5075480;28;20043;-87
2022/12/03 03:16:54;;;;;;;;;;;;;;;;;;;;;
2022/12/03 03:19:26;;;;;;;31.65;13.68;;;;;;;1.71;91.07;102078.09;5077709;28;20032;-87
2022/12/03 03:22:04;;;;;;;32.65;13.05;;;;;;;1.75;91.89;102081.34;5075007;28;20024;-86
2022/12/03 03:24:37;;;;;;;32.30;13.35;;;;;;;1.73;91.78;102075.28;5076806;28;20112;-87
2022/12/03 03:27:04;;;;;;;29.45;12.93;;;;;;;1.66;91.47;102072.25;5076020;28;20360;-87
2022/12/03 03:29:39;;;;;;;30.90;13.55;;;;;;;1.67;91.68;102073.97;5093137;28;20079;-86
2022/12/03 03:32:08;;;;;;;34.20;14.48;;;;;;;1.67;91.75;102073.09;5075999;28;20464;-87
2022/12/03 03:34:36;;;;;;;29.63;12.95;;;;;;;1.70;91.94;102067.53;5075625;28;20495;-86
2022/12/03 03:37:02;;;;;;;34.10;14.23;;;;;;;1.70;91.93;102064.84;5075553;28;20036;-86
2022/12/03 03:39:30;;;;;;;30.17;13.13;;;;;;;1.70;91.78;102071.03;5075677;28;20448;-87
2022/12/03 03:42:08;;;;;;;;;;;;;;;;;;;;;
2022/12/03 03:44:46;;;;;;;29.55;12.85;;;;;;;1.69;91.57;102063.97;5066257;28;20364;-87
2022/12/03 03:47:31;;;;;;;31.75;13.98;;;;;;;1.66;91.88;102066.06;5078542;28;20073;-87
2022/12/03 03:50:01;;;;;;;32.05;13.25;;;;;;;1.67;92.10;102065.06;5096768;28;20028;-87
2022/12/03 03:52:34;;;;;;;32.38;14.32;;;;;;;1.68;91.97;102058.75;5078722;28;20081;-86
2022/12/03 03:55:05;;;;;;;30.88;13.98;;;;;;;1.69;92.34;102058.63;5078542;28;20048;-87
2022/12/03 03:57:31;;;;;;;30.75;13.73;;;;;;;1.73;92.11;102073.47;5097039;28;20597;-87
2022/12/03 03:59:58;;;;;;;31.20;13.07;;;;;;;1.71;92.30;102061.19;5061454;28;20070;-87
2022/12/03 04:02:25;;;;;;;31.52;13.73;;;;;;;1.70;91.77;102065.69;5079271;28;20107;-87
2022/12/03 04:04:54;;;;;;;30.95;12.85;;;;;;;1.69;92.19;102063.97;5078744;28;20028;-87
2022/12/03 04:07:22;;;;;;;33.75;14.48;;;;;;;1.69;92.17;102053.28;5078016;28;20539;-87
2022/12/03 04:09:52;;;;;;;35.15;14.15;;;;;;;1.73;91.89;102059.25;5078718;28;20085;-87
2022/12/03 04:12:55;;;;;;;30.43;13.93;;;;;;;1.69;92.05;102057.78;5096811;28;20036;-87
2022/12/03 04:15:32;;;;;;;34.72;14.60;;;;;;;1.72;92.07;102053.03;5096230;28;20111;-87
2022/12/03 04:22:38;;;;;;;33.22;14.00;;;;;;;1.75;92.56;102058.13;5081087;28;20042;-87
2022/12/03 04:23:43;;;;;;;32.42;14.77;;;;;;;1.67;92.29;102054.38;5096007;28;20039;-87
2022/12/03 04:29:16;;;;;;;35.13;15.13;;;;;;;1.75;92.61;102062.63;5096657;28;20043;-87
2022/12/03 04:37:35;;;;;;;31.73;14.43;;;;;;;1.70;92.11;102054.97;5080852;28;20087;-87
2022/12/03 04:42:56;;;;;;;34.50;14.65;;;;;;;1.69;92.40;102063.97;5096405;28;20161;-87
2022/12/03 04:45:32;;;;;;;33.55;13.85;;;;;;;1.74;92.48;102055.56;5077899;28;20028;-86
2022/12/03 04:48:10;;;;;;;;;;;;;;;;;;;;;
2022/12/03 04:50:41;;;;;;;34.88;15.18;;;;;;;1.68;92.67;102042.69;5096107;28;20031;-87
2022/12/03 04:53:19;;;;;;;32.10;14.43;;;;;;;1.68;92.63;102046.25;5077957;28;20492;-87
2022/12/03 04:55:59;;;;;;;32.88;14.15;;;;;;;1.70;92.55;102046.97;5077696;28;20040;-87
2022/12/03 04:58:30;;;;;;;36.45;15.35;;;;;;;1.71;92.58;102042.44;5062145;28;20089;-86
2022/12/03 05:01:15;;;;;;;34.08;13.65;;;;;;;1.78;92.44;102048.16;5060901;28;20049;-87
2022/12/03 05:03:43;;;;;;;32.22;14.63;;;;;;;1.74;92.92;102036.84;5080621;28;20040;-87
2022/12/03 05:06:17;;;;;;;36.27;15.13;;;;;;;1.77;92.66;102041.09;5060554;28;20527;-87
2022/12/03 05:08:47;;;;;;;30.05;13.68;;;;;;;1.74;92.47;102037.69;5061384;28;20028;-87
2022/12/03 05:11:16;;;;;;;33.38;14.55;;;;;;;1.73;92.62;102041.34;5095536;28;20028;-86
2022/12/03 05:13:45;;;;;;;35.10;14.32;;;;;;;1.71;92.59;102032.63;5077270;28;20035;-87
2022/12/03 05:16:28;;;;;;;33.83;14.50;;;;;;;1.70;92.34;102030.91;5077011;28;20040;-87
2022/12/03 05:19:11;;;;;;;;;;;;;;;;;;;;;
2022/12/03 05:21:44;;;;;;;33.53;14.63;;;;;;;1.68;92.79;102034.69;5079958;28;20375;-87
2022/12/03 05:24:10;;;;;;;32.58;15.20;;;;;;;1.67;92.93;102031.16;5077276;28;20062;-87
2022/12/03 05:26:38;;;;;;;32.60;14.13;;;;;;;1.67;93.27;102041.88;5076831;28;20458;-87
2022/12/03 05:29:06;;;;;;;33.65;14.52;;;;;;;1.68;92.79;102040.03;5076434;28;20070;-87
2022/12/03 05:31:47;;;;;;;;;;;;;;;;;;;;;
2022/12/03 05:34:15;;;;;;;35.50;14.98;;;;;;;1.70;93.30;102033.56;5078806;28;20038;-87
2022/12/03 05:36:47;;;;;;;33.65;15.00;;;;;;;1.70;93.01;102030.91;5076436;28;20042;-87
2022/12/03 05:39:37;;;;;;;35.08;15.55;;;;;;;1.74;92.89;102034.16;5060936;28;20040;-87
2022/12/03 05:44:57;;;;;;;34.63;14.30;;;;;;;1.73;92.68;102027.13;5079890;28;20181;-87
2022/12/03 05:47:30;;;;;;;35.47;15.13;;;;;;;1.71;93.37;102021.91;5076662;28;20093;-87
2022/12/03 05:49:58;;;;;;;34.60;15.50;;;;;;;1.74;92.87;102021.66;5059603;28;20059;-87
2022/12/03 05:52:26;;;;;;;35.30;14.80;;;;;;;1.73;93.10;102013.75;5094379;28;20541;-87
2022/12/03 05:58:17;;;;;;;38.40;15.95;;;;;;;1.70;93.09;102016.69;5094690;28;20066;-87
2022/12/03 06:01:05;;;;;;;34.45;15.07;;;;;;;1.72;93.15;102020.91;5031550;28;20050;-87
2022/12/03 06:03:41;;;;;;;35.35;14.77;;;;;;;1.70;93.11;102014.00;5076890;28;20043;-86
2022/12/03 06:06:19;;;;;;;38.10;16.02;;;;;;;1.70;93.30;102011.34;5059888;28;20043;-87
2022/12/03 06:08:56;;;;;;;37.03;15.20;;;;;;;1.69;93.56;102009.63;5076992;28;20032;-86
2022/12/03 06:11:21;;;;;;;34.80;15.48;;;;;;;1.69;93.58;102012.31;5095234;28;20063;-86
2022/12/03 06:13:49;;;;;;;36.05;15.38;;;;;;;1.65;93.35;102011.69;5059272;28;20165;-87
2022/12/03 06:16:15;;;;;;;36.50;16.00;;;;;;;1.65;93.89;102011.69;5075604;28;20186;-87
2022/12/03 06:18:43;;;;;;;37.63;15.27;;;;;;;1.66;94.02;102012.56;5075589;28;20114;-87
2022/12/03 06:21:12;;;;;;;36.22;15.40;;;;;;;1.64;93.68;102012.69;5076435;28;20111;-87
2022/12/03 06:23:43;;;;;;;35.78;16.10;;;;;;;1.66;93.72;102015.25;5076560;28;20032;-87
2022/12/03 06:26:17;;;;;;;38.70;15.82;;;;;;;1.65;93.80;102011.69;5076070;28;20115;-87
2022/12/03 06:28:51;;;;;;;37.92;15.32;;;;;;;1.65;94.00;102013.53;5060196;28;20028;-87
2022/12/03 06:31:24;;;;;;;40.42;16.00;;;;;;;1.62;94.46;102017.31;5060175;28;20032;-87
2022/12/03 06:33:55;;;;;;;36.72;15.05;;;;;;;1.60;94.01;102016.59;5075884;28;20097;-87
2022/12/03 06:36:30;;;;;;;38.33;15.25;;;;;;;1.55;94.55;102013.44;5059107;28;20039;-87
2022/12/03 06:38:59;;;;;;;40.88;16.92;;;;;;;1.61;94.38;102029.00;5094246;28;20034;-88
2022/12/03 06:41:32;;;;;;;35.38;15.75;;;;;;;1.55;94.02;102011.63;5075366;28;20032;-87
2022/12/03 06:43:57;;;;;;;37.38;15.07;;;;;;;1.58;94.26;102016.72;5058883;28;20048;-86
2022/12/03 06:46:23;;;;;;;36.33;15.87;;;;;;;1.53;94.05;102002.88;5058972;28;20039;-87
2022/12/03 06:48:58;;;;;;;37.25;14.90;;;;;;;1.59;94.51;102020.25;5075298;28;20035;-87
2022/12/03 06:51:32;;;;;;;34.07;14.83;;;;;;;1.57;94.76;102017.69;5059306;28;20131;-84
2022/12/03 06:54:05;;;;;;;36.65;15.55;;;;;;;1.51;94.22;102010.19;5058713;28;20488;-85
2022/12/03 06:56:31;;;;;;;34.95;14.60;;;;;;;1.51;94.08;102012.03;5075253;28;20075;-84
2022/12/03 06:59:01;;;;;;;34.40;14.32;;;;;;;1.55;94.09;102005.41;5076387;28;20081;-85
2022/12/03 07:01:27;;;;;;;37.22;14.90;;;;;;;1.57;93.93;102009.66;5075561;28;20055;-84
2022/12/03 07:03:57;;;;;;;34.07;14.37;;;;;;;1.57;94.23;102012.34;5075234;28;20032;-85
2022/12/03 07:06:23;;;;;;;38.05;15.05;;;;;;;1.56;94.03;102002.59;5074608;28;20078;-85
2022/12/03 07:08:51;;;;;;;38.80;14.97;;;;;;;1.57;93.93;102004.31;5075234;28;20055;-85
2022/12/03 07:11:32;;;;;;;36.53;14.55;;;;;;;1.56;94.36;102010.63;5075135;28;20020;-85
2022/12/03 07:13:59;;;;;;;38.95;14.98;;;;;;;1.53;93.95;102008.22;5095867;28;20531;-85
2022/12/03 07:16:27;;;;;;;42.85;16.75;;;;;;;1.54;94.32;102012.59;5097327;28;20534;-85
2022/12/03 07:18:55;;;;;;;34.85;14.63;;;;;;;1.55;94.34;102010.75;5080037;28;20070;-85
2022/12/03 07:21:23;;;;;;;34.97;15.90;;;;;;;1.53;94.34;102010.06;5078645;28;20527;-85
2022/12/03 07:23:51;;;;;;;41.03;16.25;;;;;;;1.56;94.29;102009.78;5062818;28;20059;-85
2022/12/03 07:26:16;;;;;;;33.75;14.15;;;;;;;1.55;94.25;102006.28;5062933;28;20058;-84
2022/12/03 07:28:44;;;;;;;34.03;14.60;;;;;;;1.54;94.09;102004.56;5062583;28;20032;-85
2022/12/03 07:31:09;;;;;;;38.35;14.73;;;;;;;1.58;94.22;102011.38;5079269;28;20089;-84
2022/12/03 07:33:35;;;;;;;40.37;15.43;;;;;;;1.56;94.01;102002.59;5078962;28;20468;-85
2022/12/03 07:36:10;;;;;;;;;;;;;;;;;;;;;
2022/12/03 07:38:36;;;;;;;31.45;13.75;;;;;;;1.57;93.53;102009.66;5097952;28;20028;-85
2022/12/03 07:41:04;;;;;;;38.73;13.90;;;;;;;1.58;94.07;102010.53;5078825;28;20115;-85
2022/12/03 07:43:30;;;;;;;36.83;14.52;;;;;;;1.57;93.28;102004.31;5079076;28;20529;-85
2022/12/03 07:45:55;;;;;;;37.13;15.05;;;;;;;1.56;93.72;102007.97;5096976;28;20024;-86
2022/12/03 07:48:21;;;;;;;38.95;15.85;;;;;;;1.55;93.30;102005.41;5079181;28;20032;-85
2022/12/03 07:50:46;;;;;;;30.87;13.80;;;;;;;1.56;93.46;102010.63;5079249;28;20051;-85
2022/12/03 07:53:14;;;;;;;41.37;14.90;;;;;;;1.64;93.82;102012.69;5096850;28;20502;-84
2022/12/03 07:55:39;;;;;;;35.08;14.45;;;;;;;1.67;93.53;102008.88;5062136;28;20074;-85
2022/12/03 07:58:08;;;;;;;36.60;13.83;;;;;;;1.65;93.39;102010.84;5062247;28;20032;-85
2022/12/03 08:00:34;;;;;;;34.28;14.27;;;;;;;1.68;93.36;102008.78;5078721;28;20110;-85
2022/12/03 08:03:02;;;;;;;31.48;13.80;;;;;;;1.70;93.23;102020.19;5079213;28;20050;-85
2022/12/03 08:05:35;;;;;;;35.43;15.00;;;;;;;1.69;93.20;102012.31;5078525;28;20135;-85
2022/12/03 08:08:01;;;;;;;35.80;14.13;;;;;;;1.70;92.96;102014.00;5079443;28;20096;-85
2022/12/03 08:10:26;;;;;;;33.28;14.82;;;;;;;1.73;93.06;102013.75;5096746;28;20484;-85
2022/12/03 08:12:52;;;;;;;34.50;14.17;;;;;;;1.73;92.77;102021.78;5078132;28;20027;-85
2022/12/03 08:15:23;;;;;;;34.72;14.15;;;;;;;1.76;92.89;102021.53;5061915;28;20050;-85
2022/12/03 08:17:53;;;;;;;36.17;13.82;;;;;;;1.78;93.25;102018.72;5078743;28;20077;-85
2022/12/03 08:20:23;;;;;;;31.80;13.07;;;;;;;1.78;92.88;102011.53;5078026;28;20040;-85
2022/12/03 08:23:02;;;;;;;34.40;13.90;;;;;;;1.80;92.35;102011.41;5078264;28;20024;-85
2022/12/03 08:25:31;;;;;;;35.75;13.93;;;;;;;1.81;92.25;102019.28;5077556;28;20020;-85
2022/12/03 08:28:20;;;;;;;37.10;14.30;;;;;;;1.82;91.86;102015.66;5077978;28;20528;-85
2022/12/03 08:31:17;;;;;;;30.92;13.20;;;;;;;1.90;92.07;102010.47;5078343;28;20115;-85
2022/12/03 08:33:49;;;;;;;36.33;13.00;;;;;;;1.92;91.31;102019.25;5077780;28;20039;-85
2022/12/03 08:36:51;;;;;;;34.78;12.65;;;;;;;2.04;91.37;102028.06;5077512;28;20067;-84
2022/12/03 08:39:36;;;;;;;32.08;12.77;;;;;;;2.02;90.92;102019.31;5078097;28;20020;-85
2022/12/03 08:45:39;;;;;;;33.40;13.02;;;;;;;2.10;90.44;102019.50;5096123;28;20395;-85
2022/12/03 08:48:17;;;;;;;33.30;13.87;;;;;;;2.07;89.62;102018.94;5077579;28;20016;-85
2022/12/03 08:50:48;;;;;;;32.85;12.57;;;;;;;2.05;90.09;102019.06;5077553;28;20498;-85
2022/12/03 08:53:33;;;;;;;32.25;12.80;;;;;;;2.10;90.41;102021.34;5095683;28;20032;-85
2022/12/03 08:56:05;;;;;;;33.70;12.93;;;;;;;2.08;89.98;102004.53;5075107;28;20087;-85
2022/12/03 08:58:57;;;;;;;34.70;12.82;;;;;;;2.16;90.71;102009.25;5057579;28;20032;-85
2022/12/03 09:01:32;;;;;;;31.70;12.83;;;;;;;2.23;90.64;102021.97;5068574;28;20052;-84
2022/12/03 09:04:21;;;;;;;33.25;13.40;;;;;;;2.32;90.76;102023.03;5076133;28;20028;-85
2022/12/03 09:06:51;;;;;;;34.03;12.85;;;;;;;2.30;89.75;102021.44;5069648;28;20029;-85
2022/12/03 09:09:16;;;;;;;32.95;13.10;;;;;;;2.31;90.14;102012.44;5049123;28;20025;-85
2022/12/03 09:11:43;;;;;;;36.70;13.33;;;;;;;2.33;89.93;102008.63;5057254;28;20362;-85
2022/12/03 09:14:09;;;;;;;35.78;12.93;;;;;;;2.31;89.26;102018.63;5075424;28;20354;-85
2022/12/03 09:16:34;;;;;;;31.92;13.43;;;;;;;2.31;89.42;102017.81;5057254;28;20086;-84
2022/12/03 09:19:00;;;;;;;35.57;14.47;;;;;;;2.35;90.43;102022.75;5057246;28;20032;-85
2022/12/03 09:21:28;;;;;;;39.20;14.47;;;;;;;2.33;89.68;102018.50;5040123;28;20037;-84
2022/12/03 09:23:54;;;;;;;34.50;13.65;;;;;;;2.31;89.40;102017.81;5057269;28;20480;-85
2022/12/03 09:26:19;;;;;;;37.10;14.03;;;;;;;2.31;89.43;102020.47;5056762;28;20174;-84
2022/12/03 09:28:47;;;;;;;35.42;13.82;;;;;;;2.26;89.22;102007.50;5056585;28;20111;-85
2022/12/03 09:31:14;;;;;;;37.72;13.57;;;;;;;2.27;89.30;102015.41;5057328;28;20048;-85
2022/12/03 09:33:40;;;;;;;36.13;13.02;;;;;;;2.24;88.75;102010.31;5056724;28;20028;-85
2022/12/03 09:36:14;;;;;;;33.90;12.77;;;;;;;2.21;89.18;102013.22;5056567;28;20449;-85
2022/12/03 09:38:53;;;;;;;35.30;13.23;;;;;;;2.20;88.93;102018.69;5056440;28;20047;-85
2022/12/03 09:41:18;;;;;;;34.35;13.45;;;;;;;2.22;88.41;102019.44;5056943;28;20036;-85
2022/12/03 09:43:52;;;;;;;35.37;13.70;;;;;;;2.21;88.33;102013.22;5056661;28;20081;-85
2022/12/03 09:46:19;;;;;;;37.63;13.48;;;;;;;2.17;88.04;102009.13;5074877;28;20025;-85
2022/12/03 09:48:54;;;;;;;38.92;14.50;;;;;;;2.15;87.80;102003.03;5056611;28;20040;-84
2022/12/03 09:51:20;;;;;;;37.73;14.23;;;;;;;2.13;87.18;102007.69;5056649;28;20029;-84
2022/12/03 09:53:46;;;;;;;34.85;13.15;;;;;;;2.12;87.69;102005.97;5057432;28;20059;-85
2022/12/03 09:56:22;;;;;;;35.80;13.68;;;;;;;2.13;87.67;102005.00;5059868;28;20055;-84
2022/12/03 09:58:48;;;;;;;31.67;12.57;;;;;;;2.04;87.66;102003.97;5094357;28;20032;-84
2022/12/03 10:01:15;;;;;;;33.20;13.47;;;;;;;2.05;87.52;101992.28;5075946;28;20035;-84
2022/12/03 10:03:55;;;;;;;32.70;12.88;;;;;;;2.11;87.88;101996.25;5076120;28;20031;-85
2022/12/03 10:06:27;;;;;;;35.25;13.68;;;;;;;2.08;87.33;101993.81;5076173;28;20020;-84
2022/12/03 10:08:54;;;;;;;37.13;13.10;;;;;;;2.11;87.25;101990.88;5075834;28;20110;-84
2022/12/03 10:11:23;;;;;;;31.75;11.50;;;;;;;2.15;87.15;101999.53;5075897;28;20173;-85
2022/12/03 10:13:55;;;;;;;32.87;11.77;;;;;;;2.13;85.81;101983.59;5076068;28;20020;-85
2022/12/03 10:16:20;;;;;;;28.73;11.35;;;;;;;2.12;85.24;101981.03;5075735;28;20020;-85
2022/12/03 10:18:51;;;;;;;28.55;11.10;;;;;;;2.15;85.58;101984.28;5075898;28;20448;-84
2022/12/03 10:21:30;;;;;;;32.88;13.05;;;;;;;2.17;85.51;101978.81;5076121;28;20498;-84
2022/12/03 10:24:20;;;;;;;29.77;11.37;;;;;;;2.22;85.08;101985.47;5076124;28;20024;-85
2022/12/03 10:26:50;;;;;;;27.10;10.65;;;;;;;2.19;84.69;101975.03;5075802;28;20031;-84
2022/12/03 10:29:21;;;;;;;28.75;10.63;;;;;;;2.21;84.29;101969.53;5075614;28;20028;-84
2022/12/03 10:31:56;;;;;;;27.27;10.55;;;;;;;2.19;84.34;101966.16;5094643;28;20039;-84
2022/12/03 10:34:41;;;;;;;26.35;10.23;;;;;;;2.19;85.00;101967.00;5075031;28;20039;-84
2022/12/03 10:37:19;;;;;;;28.10;10.80;;;;;;;2.18;84.17;101953.72;5076311;28;20028;-85
2022/12/03 10:40:08;;;;;;;24.38;9.73;;;;;;;2.15;83.84;101957.50;5094186;28;20034;-85
2022/12/03 10:42:39;;;;;;;26.80;11.25;;;;;;;2.18;83.60;101954.56;5075749;28;20035;-85
2022/12/03 10:45:16;;;;;;;27.10;10.80;;;;;;;2.17;83.46;101949.34;5075694;28;20024;-84
2022/12/03 10:48:00;;;;;;;28.67;10.52;;;;;;;2.19;83.51;101950.09;5094006;28;20087;-85
2022/12/03 10:50:25;;;;;;;25.93;10.20;;;;;;;2.18;84.00;101945.69;5075426;28;20063;-85
2022/12/03 10:52:51;;;;;;;25.45;10.40;;;;;;;2.19;83.74;101937.53;5075564;28;20192;-84
2022/12/03 10:55:16;;;;;;;30.07;10.97;;;;;;;2.22;84.13;101933.75;5074796;28;20059;-85
2022/12/03 10:57:42;;;;;;;26.97;10.17;;;;;;;2.34;83.00;101942.53;5075175;28;20046;-85
2022/12/03 11:00:17;;;;;;;29.20;10.70;;;;;;;2.30;83.34;101919.69;5093619;28;20032;-85
2022/12/03 11:02:43;;;;;;;25.70;11.00;;;;;;;2.33;82.89;101925.59;5075530;28;20020;-85
2022/12/03 11:05:17;;;;;;;25.00;10.10;;;;;;;2.37;82.71;101923.53;5058475;28;20051;-85
2022/12/03 11:07:48;;;;;;;23.90;10.30;;;;;;;2.39;82.04;101927.75;5076086;28;20020;-85
2022/12/03 11:10:19;;;;;;;21.30;9.45;;;;;;;2.45;81.54;101926.34;5059023;28;20035;-85
2022/12/03 11:13:22;;;;;;;26.55;10.88;;;;;;;2.53;82.39;101928.38;5093513;28;20089;-84
2022/12/03 11:15:48;;;;;;;25.40;10.82;;;;;;;2.57;81.55;101924.41;5075311;28;20036;-85
2022/12/03 11:19:05;;;;;;;23.38;10.25;;;;;;;2.65;81.75;101918.41;5075603;28;20472;-85
2022/12/03 11:21:30;;;;;;;28.73;11.38;;;;;;;2.60;81.81;101916.97;5075556;28;20035;-85
2022/12/03 11:23:59;;;;;;;25.02;10.95;;;;;;;2.58;81.37;101921.63;5074866;28;20602;-85
2022/12/03 11:26:27;;;;;;;25.20;11.23;;;;;;;2.55;81.39;101913.00;5093115;28;20404;-84
2022/12/03 11:29:10;;;;;;;27.53;10.83;;;;;;;2.53;81.25;101910.47;5075235;28;20032;-85
2022/12/03 11:31:42;;;;;;;28.73;11.75;;;;;;;2.49;81.41;101905.50;5075637;28;20172;-85
2022/12/03 11:34:17;;;;;;;27.38;11.88;;;;;;;2.54;81.20;101903.25;5075167;28;20043;-85
2022/12/03 11:37:10;;;;;;;27.40;12.02;;;;;;;2.57;81.97;101901.16;5074750;28;20040;-85
2022/12/03 11:40:04;;;;;;;26.90;11.57;;;;;;;2.57;81.76;101901.16;5074862;28;20024;-85
2022/12/03 11:42:39;;;;;;;24.23;9.77;;;;;;;2.59;80.91;101887.63;5038476;28;20082;-85
2022/12/03 11:45:04;;;;;;;25.85;11.45;;;;;;;2.56;81.22;101888.75;5075447;28;20453;-84
2022/12/03 11:47:35;;;;;;;28.17;12.00;;;;;;;2.55;81.00;101886.19;5074937;28;20484;-85
2022/12/03 11:50:16;;;;;;;28.60;11.55;;;;;;;2.51;80.29;101887.47;5074719;28;20380;-84
2022/12/03 11:52:44;;;;;;;26.60;11.70;;;;;;;2.47;80.76;101878.84;5075773;28;20360;-84
2022/12/03 11:55:29;;;;;;;26.83;11.73;;;;;;;2.43;81.08;101872.06;5054472;28;20056;-85
2022/12/03 11:57:59;;;;;;;27.85;11.77;;;;;;;2.44;80.95;101874.63;5073155;28;20457;-84
2022/12/03 12:00:27;;;;;;;26.38;11.52;;;;;;;2.41;80.89;101868.69;5072064;28;20045;-84
2022/12/03 12:03:01;;;;;;;27.17;12.13;;;;;;;2.41;80.74;101876.72;5074567;28;20388;-86
2022/12/03 12:05:33;;;;;;;29.20;11.55;;;;;;;2.36;80.78;101877.16;5075239;28;20067;-86
2022/12/03 12:08:03;;;;;;;30.02;11.93;;;;;;;2.33;80.54;101876.56;5075147;28;20032;-85
2022/12/03 12:10:38;;;;;;;24.67;11.68;;;;;;;2.39;81.02;101876.00;5076556;28;20052;-86